Arklow Wind — EIKZ — position and weather

sailwx.info

Track history (hours):
 
Tides and Currents Weather Stations Pressure Air Temp Water Temp Dewpoint Dewpoint Depression Visibility Wind Speed Wind Dir Waves Ship Positions

Arklow Wind

Last reported at 2015-Apr-20 16:33 UTC. Time now 2015-Apr-21 17:54 UTC.
Position N 36°52' E 001°08'.

Length 136 m; draft 7.1 m.

Type: Cargo ship. MMSI: 250506000.

Date/timePositionNaut miles runAvg speedWind from/ knotsBaromVisibWave heightAir tempDewpointWater temp
2015-Apr-20 16:33N 36°52' E 001°08'2812.0
2015-Apr-20 14:12N 36°46' E 000°33'2311.8
2015-Apr-20 12:15N 36°42' E 000°05'1011.2
2015-Apr-20 11:24N 36°39' W 000°07'1011.1
2015-Apr-20 10:28N 36°37' W 000°19'2111.1
2015-Apr-20 08:32N 36°34' W 000°45'21511.9
2015-Apr-19 14:23N 35°56' W 005°08'911.1
2015-Apr-19 13:33N 35°54' W 005°19'0 0.1
2015-Apr-19 12:32N 35°54' W 005°19'0 0.0
2015-Apr-19 11:26N 35°54' W 005°19'0 0.0
2015-Apr-19 10:32N 35°54' W 005°19'0 0.0
2015-Apr-19 09:33N 35°54' W 005°19'4 4.3
2015-Apr-19 08:33N 35°57' W 005°23'1412.1
2015-Apr-19 07:26N 35°55' W 005°39'  
2015-Apr-10 17:04N 36°01' W 005°22'612.2
2015-Apr-10 16:33N 36°01' W 005°15'  
Track history (hours):
 
Tides and Currents Weather Stations Pressure Air Temp Water Temp Dewpoint Dewpoint Depression Visibility Wind Speed Wind Dir Waves Ship Positions

Arklow Wind

Last reported at 2015-Apr-20 16:33 UTC. Time now 2015-Apr-21 17:54 UTC.
Position N 36°52' E 001°08'.

Length 136 m; draft 7.1 m.

Type: Cargo ship. MMSI: 250506000.

Date/timePositionNaut miles runAvg speedWind from/ knotsBaromVisibWave heightAir tempDewpointWater temp
2015-Apr-20 16:33N 36°52' E 001°08'2812.0
2015-Apr-20 14:12N 36°46' E 000°33'2311.8
2015-Apr-20 12:15N 36°42' E 000°05'1011.2
2015-Apr-20 11:24N 36°39' W 000°07'1011.1
2015-Apr-20 10:28N 36°37' W 000°19'2111.1
2015-Apr-20 08:32N 36°34' W 000°45'21511.9
2015-Apr-19 14:23N 35°56' W 005°08'911.1
2015-Apr-19 13:33N 35°54' W 005°19'0 0.1
2015-Apr-19 12:32N 35°54' W 005°19'0 0.0
2015-Apr-19 11:26N 35°54' W 005°19'0 0.0
2015-Apr-19 10:32N 35°54' W 005°19'0 0.0
2015-Apr-19 09:33N 35°54' W 005°19'4 4.3
2015-Apr-19 08:33N 35°57' W 005°23'1412.1
2015-Apr-19 07:26N 35°55' W 005°39'  
2015-Apr-10 17:04N 36°01' W 005°22'612.2
2015-Apr-10 16:33N 36°01' W 005°15'  

Dump ship's entire track history